.
WxDataArchive / Data Records for 2008-03-28
2008-03-27 March 2008 2008-03-29

Data Records for Friday, 28 March 2008

Time	Temp	Chill	HIndex	Humid	Dewpt	 Wind 	HiWind	WindDir	Rain 	Barom 
-----	----	-----	------	-----	-----	------	------	-------	-----	----- 
00:00	33.5	33.5	33.5	94	32.0	3	10	45	0.00	29.812 
00:05	33.4	29.7	33.4	94	31.9	4	15	112	0.00	29.805 
00:10	33.4	33.4	33.4	93	31.6	3	9	68	0.00	29.802 
00:15	33.4	29.7	33.4	93	31.6	4	11	112	0.00	29.803 
00:20	33.4	33.4	33.4	93	31.6	2	6	45	0.00	29.806 
00:25	33.2	29.5	33.2	93	31.4	4	9	45	0.00	29.808 
00:30	33.2	33.2	33.2	93	31.4	3	9	68	0.00	29.811 
00:35	33.1	33.1	33.1	93	31.3	3	12	45	0.00	29.811 
00:40	33.2	33.2	33.2	93	31.4	3	11	45	0.00	29.814 
00:45	33.2	29.5	33.2	92	31.1	4	13	45	0.00	29.816 
00:50	32.9	29.1	32.9	92	30.8	4	13	112	0.00	29.817 
00:55	32.9	32.9	32.9	92	30.8	3	7	90	0.00	29.817 
01:00	32.9	32.9	32.9	91	30.6	2	6	68	0.00	29.828 
01:05	32.9	32.9	32.9	91	30.6	2	6	112	0.00	29.829 
01:10	33.1	33.1	33.1	92	31.0	1	3	22	0.00	29.834 
01:15	33.1	33.1	33.1	92	31.0	1	5	22	0.00	29.839 
01:20	32.9	32.9	32.9	92	30.8	3	9	45	0.00	29.841 
01:25	32.8	32.8	32.8	91	30.5	2	9	45	0.00	29.839 
01:30	32.8	32.8	32.8	91	30.5	3	7	68	0.00	29.839 
01:35	32.5	32.5	32.5	91	30.2	3	6	90	0.00	29.830 
01:40	32.5	32.5	32.5	91	30.2	3	7	0	0.00	29.827 
01:45	32.5	32.5	32.5	91	30.2	3	7	112	0.00	29.829 
01:50	32.5	32.5	32.5	91	30.2	2	6	45	0.00	29.827 
01:55	32.5	32.5	32.5	91	30.2	2	9	22	0.00	29.829 
02:00	32.4	32.4	32.4	91	30.1	2	6	22	0.00	29.832 
02:05	32.2	32.2	32.2	90	29.6	3	6	45	0.00	29.847 
02:10	31.9	31.9	31.9	90	29.3	3	7	22	0.00	29.855 
02:15	31.9	31.9	31.9	90	29.3	2	7	112	0.00	29.860 
02:20	32.1	32.1	32.1	90	29.5	1	5	68	0.00	29.862 
02:25	32.1	32.1	32.1	90	29.5	1	5	0	0.00	29.864 
02:30	32.1	28.2	32.1	90	29.5	4	10	135	0.00	29.865 
02:35	32.1	32.1	32.1	89	29.2	3	7	45	0.00	29.867 
02:40	32.1	32.1	32.1	89	29.2	2	5	90	0.00	29.873 
02:45	32.2	32.2	32.2	89	29.3	0	2	0	0.00	29.877 
02:50	32.2	32.2	32.2	89	29.3	1	4	0	0.00	29.880 
02:55	32.1	32.1	32.1	88	29.0	2	9	112	0.00	29.883 
03:00	31.9	31.9	31.9	88	28.8	1	7	68	0.00	29.881 
03:05	31.9	31.9	31.9	88	28.8	1	5	22	0.00	29.884 
03:10	31.8	31.8	31.8	88	28.7	1	4	45	0.00	29.881 
03:15	31.8	31.8	31.8	88	28.7	2	9	22	0.00	29.882 
03:20	31.6	31.6	31.6	87	28.2	1	7	45	0.00	29.887 
03:25	31.6	31.6	31.6	88	28.5	2	7	45	0.00	29.885 
03:30	31.6	31.6	31.6	88	28.5	1	6	22	0.00	29.888 
03:35	31.5	31.5	31.5	88	28.4	1	3	0	0.00	29.894 
03:40	31.5	31.5	31.5	87	28.1	2	5	338	0.00	29.898 
03:45	31.3	31.3	31.3	87	27.9	1	5	112	0.00	29.904 
03:50	31.2	31.2	31.2	87	27.8	1	4	22	0.00	29.911 
03:55	31.2	31.2	31.2	87	27.8	2	5	22	0.00	29.910 
04:00	30.9	30.9	30.9	86	27.2	2	7	22	0.00	29.912 
04:05	30.7	30.7	30.7	86	27.0	1	6	22	0.00	29.911 
04:10	30.6	30.6	30.6	86	26.9	2	7	22	0.00	29.915 
04:15	30.4	30.4	30.4	86	26.7	1	5	0	0.00	29.920 
04:20	30.3	30.3	30.3	85	26.3	2	6	45	0.00	29.924 
04:25	30.3	30.3	30.3	85	26.3	1	3	0	0.00	29.921 
04:30	30.3	30.3	30.3	85	26.3	1	3	0	0.00	29.922 
04:35	30.3	30.3	30.3	85	26.3	1	5	0	0.00	29.926 
04:40	30.1	30.1	30.1	85	26.1	1	5	338	0.00	29.926 
04:45	30.3	30.3	30.3	85	26.3	1	5	45	0.00	29.926 
04:50	30.3	30.3	30.3	85	26.3	1	5	338	0.00	29.933 
04:55	30.1	30.1	30.1	85	26.1	2	5	0	0.00	29.933 
05:00	30.0	30.0	30.0	86	26.3	1	6	45	0.00	29.935 
05:05	29.8	29.8	29.8	87	26.4	1	4	45	0.00	29.943 
05:10	29.7	29.7	29.7	87	26.3	1	5	68	0.00	29.948 
05:15	29.7	29.7	29.7	87	26.3	1	5	135	0.00	29.953 
05:20	29.5	29.5	29.5	87	26.1	1	6	45	0.00	29.962 
05:25	29.5	29.5	29.5	87	26.1	2	6	112	0.00	29.963 
05:30	29.5	29.5	29.5	87	26.1	2	5	45	0.00	29.970 
05:35	29.5	29.5	29.5	87	26.1	1	3	45	0.00	29.976 
05:40	29.5	29.5	29.5	87	26.1	1	5	338	0.00	29.979 
05:45	29.4	29.4	29.4	86	25.7	1	3	338	0.00	29.985 
05:50	29.4	29.4	29.4	86	25.7	1	5	315	0.00	29.992 
05:55	29.4	29.4	29.4	85	25.5	1	8	0	0.00	29.993 
06:00	29.4	29.4	29.4	85	25.5	1	4	112	0.00	29.993 
06:05	29.4	29.4	29.4	84	25.2	1	5	0	0.00	29.996 
06:10	29.4	29.4	29.4	83	24.9	1	5	315	0.00	30.001 
06:15	29.4	29.4	29.4	83	24.9	1	5	0	0.00	30.012 
06:20	29.3	29.3	29.3	81	24.2	2	6	315	0.00	30.014 
06:25	29.3	29.3	29.3	81	24.2	1	4	0	0.00	30.016 
06:30	29.3	29.3	29.3	80	23.9	2	5	22	0.00	30.017 
06:35	29.3	29.3	29.3	80	23.9	1	3	338	0.00	30.016 
06:40	29.1	29.1	29.1	79	23.4	1	4	338	0.00	30.015 
06:45	29.1	29.1	29.1	80	23.7	1	4	22	0.00	30.023 
06:50	29.1	29.1	29.1	79	23.4	1	3	338	0.00	30.025 
06:55	29.3	29.3	29.3	79	23.6	1	3	0	0.00	30.023 
07:00	29.3	29.3	29.3	79	23.6	1	4	22	0.00	30.028 
07:05	29.3	29.3	29.3	78	23.3	1	3	22	0.00	30.029 
07:10	29.3	29.3	29.3	77	23.0	1	6	0	0.00	30.028 
07:15	29.4	29.4	29.4	78	23.4	0	2	0	0.00	30.026 
07:20	29.4	29.4	29.4	77	23.1	1	3	22	0.00	30.028 
07:25	29.5	29.5	29.5	77	23.2	1	3	45	0.00	30.028 
07:30	29.5	29.5	29.5	77	23.2	1	4	68	0.00	30.030 
07:35	29.7	29.7	29.7	77	23.4	1	2	22	0.00	30.033 
07:40	29.7	29.7	29.7	76	23.1	1	6	338	0.00	30.034 
07:45	29.8	29.8	29.8	76	23.2	1	4	45	0.00	30.043 
07:50	29.8	29.8	29.8	76	23.2	1	3	22	0.00	30.044 
07:55	30.0	30.0	30.0	77	23.7	0	3	68	0.00	30.045 
08:00	30.0	30.0	30.0	76	23.4	1	3	45	0.00	30.056 
08:05	30.1	30.1	30.1	76	23.5	1	4	0	0.00	30.056 
08:10	30.0	30.0	30.0	74	22.7	2	4	338	0.00	30.057 
08:15	30.1	30.1	30.1	76	23.5	0	3	135	0.00	30.060 
08:20	30.4	30.4	30.4	76	23.8	1	3	0	0.00	30.060 
08:25	30.6	30.6	30.6	75	23.6	1	3	22	0.00	30.061 
08:30	30.9	30.9	30.9	75	23.9	1	4	45	0.00	30.067 
08:35	30.9	30.9	30.9	73	23.3	1	4	45	0.00	30.067 
08:40	31.0	31.0	31.0	73	23.4	0	2	45	0.00	30.072 
08:45	30.9	30.9	30.9	73	23.3	1	4	22	0.00	30.075 
08:50	30.9	30.9	30.9	73	23.3	1	6	22	0.00	30.076 
08:55	30.9	30.9	30.9	73	23.3	1	3	45	0.00	30.085 
09:00	31.0	31.0	31.0	73	23.4	1	3	22	0.00	30.088 
09:05	31.0	31.0	31.0	72	23.1	1	3	0	0.00	30.090 
09:10	31.2	31.2	31.2	72	23.2	0	5	0	0.00	30.092 
09:15	31.5	31.5	31.5	73	23.9	1	3	0	0.00	30.093 
09:20	31.6	31.6	31.6	73	24.0	1	2	68	0.00	30.099 
09:25	31.9	31.9	31.9	72	23.9	1	3	292	0.00	30.098 
09:30	31.9	31.9	31.9	71	23.6	1	4	22	0.00	30.095 
09:35	32.1	32.1	32.1	72	24.1	2	7	315	0.00	30.098 
09:40	32.5	32.5	32.5	72	24.5	1	5	22	0.00	30.102 
09:45	33.2	33.2	33.2	72	25.2	1	5	68	0.00	30.100 
09:50	33.8	33.8	33.8	70	25.1	1	3	0	0.00	30.101 
09:55	34.3	34.3	34.3	69	25.2	1	3	315	0.00	30.104 
10:00	34.6	34.6	34.6	66	24.4	2	6	45	0.00	30.106 
10:05	35.0	35.0	35.0	66	24.8	2	6	68	0.00	30.108 
10:10	35.2	35.2	35.2	65	24.6	2	6	45	0.00	30.114 
10:15	35.3	35.3	35.3	66	25.1	1	4	45	0.00	30.116 
10:20	35.2	35.2	35.2	65	24.6	2	5	338	0.00	30.118 
10:25	35.2	35.2	35.2	65	24.6	2	6	338	0.00	30.119 
10:30	35.3	35.3	35.3	64	24.4	1	4	0	0.00	30.121 
10:35	35.6	35.6	35.6	65	25.0	1	5	22	0.00	30.122 
10:40	35.6	35.6	35.6	64	24.6	2	6	0	0.00	30.130 
10:45	35.9	35.9	35.9	65	25.3	2	6	22	0.00	30.134 
10:50	36.5	36.5	36.5	66	26.2	1	4	90	0.00	30.134 
10:55	36.6	36.6	36.6	60	24.0	2	6	338	0.00	30.135 
11:00	36.8	36.8	36.8	60	24.2	2	6	270	0.00	30.138 
11:05	37.2	37.2	37.2	60	24.6	2	5	68	0.00	30.138 
11:10	37.3	37.3	37.3	58	23.9	1	4	338	0.00	30.143 
11:15	37.8	37.8	37.8	62	26.0	1	4	0	0.00	30.142 
11:20	37.8	37.8	37.8	53	22.2	2	7	315	0.00	30.143 
11:25	37.8	37.8	37.8	58	24.4	2	5	0	0.00	30.147 
11:30	37.8	37.8	37.8	57	24.0	2	7	45	0.00	30.148 
11:35	38.0	38.0	38.0	62	26.2	1	4	0	0.00	30.148 
11:40	37.9	37.9	37.9	55	23.2	2	5	22	0.00	30.150 
11:45	38.2	38.2	38.2	59	25.2	1	6	270	0.00	30.149 
11:50	38.2	38.2	38.2	57	24.3	1	4	45	0.00	30.150 
11:55	38.6	38.6	38.6	56	24.3	1	4	292	0.00	30.151 
12:00	38.6	38.6	38.6	56	24.3	1	5	22	0.00	30.153 
12:05	38.2	38.2	38.2	52	22.1	2	6	338	0.00	30.158 
12:10	38.3	38.3	38.3	55	23.6	1	6	338	0.00	30.157 
12:15	38.5	38.5	38.5	52	22.4	2	9	315	0.00	30.152 
12:20	38.3	38.3	38.3	49	20.8	2	9	315	0.00	30.153 
12:25	38.8	38.8	38.8	54	23.6	1	5	315	0.00	30.154 
12:30	38.8	38.8	38.8	52	22.7	2	9	22	0.00	30.159 
12:35	39.2	39.2	39.2	52	23.1	1	9	22	0.00	30.157 
12:40	39.6	39.6	39.6	56	25.2	1	4	22	0.00	30.159 
12:45	39.6	39.6	39.6	51	23.0	2	7	0	0.00	30.160 
12:50	39.3	39.3	39.3	51	22.7	2	5	0	0.00	30.161 
12:55	39.6	39.6	39.6	49	22.0	1	4	0	0.00	30.160 
13:00	39.5	39.5	39.5	49	21.9	3	10	0	0.01	30.161 
13:05	39.3	39.3	39.3	48	21.3	3	7	338	0.00	30.164 
13:10	39.3	39.3	39.3	50	22.2	2	7	22	0.00	30.163 
13:15	39.5	39.5	39.5	47	21.0	2	11	0	0.00	30.163 
13:20	39.5	39.5	39.5	45	19.9	2	5	0	0.00	30.163 
13:25	39.8	39.8	39.8	46	20.7	2	9	22	0.00	30.163 
13:30	40.1	40.1	40.1	52	23.9	1	6	22	0.00	30.161 
13:35	40.2	40.2	40.2	50	23.1	1	5	338	0.00	30.160 
13:40	39.9	39.9	39.9	51	23.3	2	6	0	0.00	30.162 
13:45	39.6	39.6	39.6	54	24.3	2	6	0	0.00	30.162 
13:50	39.8	39.8	39.8	52	23.6	2	6	0	0.00	30.162 
13:55	39.5	39.5	39.5	51	22.9	2	6	338	0.00	30.163 
14:00	39.6	39.6	39.6	49	22.0	2	5	338	0.00	30.164 
14:05	39.9	39.9	39.9	50	22.8	2	6	22	0.00	30.164 
14:10	39.5	39.5	39.5	51	22.9	2	6	292	0.00	30.164 
14:15	39.3	39.3	39.3	49	21.8	2	6	338	0.00	30.165 
14:20	39.3	39.3	39.3	52	23.2	2	6	45	0.00	30.165 
14:25	39.6	39.6	39.6	52	23.4	1	5	338	0.00	30.164 
14:30	39.9	39.9	39.9	52	23.7	2	7	292	0.00	30.164 
14:35	40.1	40.1	40.1	54	24.8	2	7	0	0.00	30.163 
14:40	40.1	40.1	40.1	51	23.4	2	6	22	0.00	30.164 
14:45	39.9	39.9	39.9	52	23.7	1	5	338	0.00	30.164 
14:50	39.9	39.9	39.9	50	22.8	2	5	22	0.00	30.165 
14:55	40.3	40.3	40.3	50	23.2	1	4	0	0.00	30.165 
15:00	40.3	40.3	40.3	52	24.1	1	5	0	0.00	30.166 
15:05	40.5	40.5	40.5	53	24.7	2	5	0	0.00	30.168 
15:10	40.3	40.3	40.3	53	24.5	2	7	315	0.00	30.167 
15:15	40.2	40.2	40.2	54	24.9	2	9	292	0.00	30.170 
15:20	39.9	39.9	39.9	54	24.6	1	6	22	0.00	30.172 
15:25	39.5	39.5	39.5	49	21.9	2	4	0	0.00	30.175 
15:30	39.2	39.2	39.2	51	22.6	2	6	315	0.00	30.179 
15:35	39.5	39.5	39.5	53	23.8	1	6	270	0.00	30.178 
15:40	39.6	39.6	39.6	54	24.3	2	4	315	0.00	30.179 
15:45	39.1	39.1	39.1	54	23.9	1	5	315	0.00	30.179 
15:50	38.8	38.8	38.8	52	22.7	1	4	338	0.00	30.181 
15:55	39.2	39.2	39.2	53	23.5	1	6	315	0.00	30.182 
16:00	39.3	39.3	39.3	52	23.2	2	4	338	0.00	30.183 
16:05	39.2	39.2	39.2	52	23.1	1	6	338	0.00	30.186 
16:10	39.2	39.2	39.2	51	22.6	2	9	338	0.00	30.189 
16:15	39.1	39.1	39.1	52	23.0	1	4	338	0.00	30.194 
16:20	39.3	39.3	39.3	51	22.7	1	3	22	0.00	30.197 
16:25	39.3	39.3	39.3	51	22.7	1	5	0	0.00	30.197 
16:30	39.1	39.1	39.1	49	21.6	2	6	22	0.00	30.199 
16:35	38.9	38.9	38.9	51	22.3	2	7	22	0.00	30.197 
16:40	39.1	39.1	39.1	50	22.0	1	4	22	0.00	30.199 
16:45	38.9	38.9	38.9	50	21.9	2	5	0	0.00	30.199 
16:50	38.8	38.8	38.8	50	21.8	2	5	0	0.00	30.199 
16:55	38.8	38.8	38.8	50	21.8	2	6	45	0.00	30.200 
17:00	38.9	38.9	38.9	50	21.9	1	3	315	0.00	30.201 
17:05	38.9	38.9	38.9	48	20.9	1	7	270	0.00	30.202 
17:10	38.8	38.8	38.8	49	21.3	2	5	338	0.00	30.203 
17:15	38.8	38.8	38.8	50	21.8	1	6	0	0.00	30.208 
17:20	38.6	38.6	38.6	50	21.6	1	6	338	0.00	30.211 
17:25	38.6	38.6	38.6	49	21.1	1	6	315	0.00	30.212 
17:30	38.3	38.3	38.3	49	20.8	1	6	338	0.00	30.214 
17:35	38.2	38.2	38.2	50	21.2	1	4	0	0.00	30.217 
17:40	38.0	38.0	38.0	51	21.5	1	3	22	0.00	30.217 
17:45	38.0	38.0	38.0	50	21.0	1	6	0	0.00	30.217 
17:50	37.9	37.9	37.9	50	20.9	1	5	315	0.00	30.220 
17:55	37.8	37.8	37.8	50	20.8	1	4	292	0.00	30.221 
18:00	37.6	37.6	37.6	51	21.1	1	2	22	0.00	30.223 
18:05	37.5	37.5	37.5	50	20.6	1	3	22	0.00	30.226 
18:10	37.3	37.3	37.3	52	21.3	0	2	0	0.00	30.229 
18:15	37.2	37.2	37.2	50	20.3	1	2	0	0.00	30.232 
18:20	37.0	37.0	37.0	50	20.1	1	4	292	0.00	30.233 
18:25	37.0	37.0	37.0	51	20.6	1	3	315	0.00	30.234 
18:30	36.9	36.9	36.9	52	20.9	1	3	45	0.00	30.238 
18:35	36.8	36.8	36.8	52	20.8	0	2	0	0.00	30.239 
18:40	36.6	36.6	36.6	52	20.7	1	5	22	0.00	30.241 
18:45	36.5	36.5	36.5	53	21.0	0	2	22	0.00	30.243 
18:50	36.3	36.3	36.3	53	20.8	0	1	22	0.00	30.246 
18:55	36.2	36.2	36.2	54	21.2	0	1	22	0.00	30.248 
19:00	36.0	36.0	36.0	54	21.0	0	1	22	0.00	30.250 
19:05	35.9	35.9	35.9	54	20.9	0	1	22	0.00	30.248 
19:10	35.8	35.8	35.8	55	21.2	0	1	22	0.00	30.250 
19:15	35.6	35.6	35.6	56	21.5	0	0	---	0.00	30.253 
19:20	35.5	35.5	35.5	56	21.4	0	0	---	0.00	30.253 
19:25	35.3	35.3	35.3	57	21.6	0	0	---	0.00	30.258 
19:30	35.0	35.0	35.0	58	21.7	0	0	---	0.00	30.260 
19:35	34.7	34.7	34.7	59	21.9	0	0	---	0.00	30.261 
19:40	34.3	34.3	34.3	59	21.5	0	0	---	0.00	30.264 
19:45	34.0	34.0	34.0	60	21.6	0	0	---	0.00	30.266 
19:50	33.7	33.7	33.7	60	21.3	0	0	---	0.00	30.267 
19:55	33.4	33.4	33.4	61	21.4	0	0	---	0.00	30.270 
20:00	33.2	33.2	33.2	61	21.2	0	0	---	0.00	30.274 
20:05	32.9	32.9	32.9	61	20.9	0	0	---	0.00	30.274 
20:10	32.7	32.7	32.7	62	21.1	0	0	---	0.00	30.277 
20:15	32.5	32.5	32.5	63	21.3	0	0	---	0.00	30.279 
20:20	32.1	32.1	32.1	64	21.3	0	0	---	0.00	30.282 
20:25	31.8	31.8	31.8	64	21.0	0	0	---	0.00	30.283 
20:30	31.6	31.6	31.6	65	21.2	0	0	---	0.00	30.283 
20:35	31.5	31.5	31.5	65	21.1	0	0	---	0.00	30.284 
20:40	31.3	31.3	31.3	67	21.6	0	0	---	0.00	30.285 
20:45	31.2	31.2	31.2	68	21.9	0	0	---	0.00	30.290 
20:50	31.0	31.0	31.0	69	22.0	0	0	---	0.00	30.291 
20:55	30.9	30.9	30.9	69	21.9	0	0	---	0.00	30.295 
21:00	30.7	30.7	30.7	69	21.8	0	0	---	0.00	30.298 
21:05	30.6	30.6	30.6	70	22.0	0	0	---	0.00	30.295 
21:10	30.4	30.4	30.4	69	21.5	0	0	---	0.00	30.298 
21:15	30.3	30.3	30.3	70	21.7	0	0	---	0.00	30.299 
21:20	30.1	30.1	30.1	70	21.5	0	0	---	0.00	30.299 
21:25	30.0	30.0	30.0	70	21.4	0	0	---	0.00	30.299 
21:30	29.8	29.8	29.8	71	21.6	0	0	---	0.00	30.299 
21:35	29.8	29.8	29.8	71	21.6	0	0	---	0.00	30.300 
21:40	29.7	29.7	29.7	72	21.8	0	3	22	0.00	30.303 
21:45	29.8	29.8	29.8	73	22.2	0	2	90	0.00	30.305 
21:50	30.0	30.0	30.0	73	22.4	0	0	---	0.00	30.309 
21:55	30.0	30.0	30.0	73	22.4	0	0	---	0.00	30.311 
22:00	29.8	29.8	29.8	72	21.9	0	0	---	0.00	30.313 
22:05	30.0	30.0	30.0	73	22.4	0	1	90	0.00	30.312 
22:10	30.0	30.0	30.0	72	22.1	0	0	---	0.00	30.312 
22:15	30.0	30.0	30.0	72	22.1	0	0	---	0.00	30.313 
22:20	29.8	29.8	29.8	72	21.9	0	0	---	0.00	30.314 
22:25	29.7	29.7	29.7	72	21.8	0	0	---	0.00	30.315 
22:30	29.4	29.4	29.4	73	21.8	0	0	---	0.00	30.319 
22:35	29.1	29.1	29.1	73	21.5	0	0	---	0.00	30.322 
22:40	29.1	29.1	29.1	74	21.9	0	0	---	0.00	30.325 
22:45	29.5	29.5	29.5	73	21.9	0	1	90	0.00	30.326 
22:50	30.3	30.3	30.3	72	22.4	0	1	90	0.00	30.328 
22:55	30.7	30.7	30.7	71	22.4	0	1	90	0.00	30.327 
23:00	30.9	30.9	30.9	70	22.3	0	2	90	0.00	30.330 
23:05	31.0	31.0	31.0	69	22.0	0	1	90	0.00	30.328 
23:10	31.0	31.0	31.0	69	22.0	0	0	---	0.00	30.327 
23:15	30.7	30.7	30.7	70	22.1	0	1	90	0.00	30.330 
23:20	30.6	30.6	30.6	70	22.0	0	1	90	0.00	30.329 
23:25	30.4	30.4	30.4	70	21.8	0	0	---	0.00	30.330 
23:30	30.4	30.4	30.4	71	22.1	0	1	90	0.00	30.335 
23:35	30.3	30.3	30.3	71	22.0	0	1	90	0.00	30.337 
23:40	30.1	30.1	30.1	71	21.9	0	0	---	0.00	30.338 
23:45	30.0	30.0	30.0	72	22.1	0	1	90	0.00	30.340 
23:50	29.8	29.8	29.8	73	22.2	0	1	90	0.00	30.340 
23:55	29.7	29.7	29.7	73	22.1	0	1	90	0.00	30.341 

CoCoRaHS
IN-AL-39
A2 Web Hosting
Creative Commons License
GoDaddy
Look for:

loaded 2017-12-10 21:43:42 • last modified 2010-11-18 10:43:29
Privacy PolicyDisclaimer
• wx.awcolley.com is powered by PmWiki v.2002016 •
• all content (unless otherwise noted) © 2017 A W Colley